sensor_id;sensor_type;location;lat;lon;timestamp;P1;durP1;ratioP1;P2;durP2;ratioP2
18754;SDS011;35061;47.664;9.166;2023-02-28T00:01:33;5.12;;;4.40;;
18754;SDS011;35061;47.664;9.166;2023-02-28T00:04:01;5.65;;;4.40;;
18754;SDS011;35061;47.664;9.166;2023-02-28T00:06:30;6.43;;;4.95;;
18754;SDS011;35061;47.664;9.166;2023-02-28T00:08:57;5.47;;;4.50;;
18754;SDS011;35061;47.664;9.166;2023-02-28T00:11:25;6.10;;;4.57;;
18754;SDS011;35061;47.664;9.166;2023-02-28T00:13:53;6.05;;;4.90;;
18754;SDS011;35061;47.664;9.166;2023-02-28T00:16:21;5.00;;;4.20;;
18754;SDS011;35061;47.664;9.166;2023-02-28T00:18:50;4.60;;;4.10;;
18754;SDS011;35061;47.664;9.166;2023-02-28T00:21:18;5.05;;;4.55;;
18754;SDS011;35061;47.664;9.166;2023-02-28T00:23:47;5.47;;;4.97;;
18754;SDS011;35061;47.664;9.166;2023-02-28T00:26:15;5.97;;;4.78;;
18754;SDS011;35061;47.664;9.166;2023-02-28T00:28:44;5.78;;;4.50;;
18754;SDS011;35061;47.664;9.166;2023-02-28T00:31:12;4.90;;;4.37;;
18754;SDS011;35061;47.664;9.166;2023-02-28T00:33:40;4.87;;;4.37;;
18754;SDS011;35061;47.664;9.166;2023-02-28T00:36:09;8.07;;;4.62;;
18754;SDS011;35061;47.664;9.166;2023-02-28T00:38:39;5.93;;;4.87;;
18754;SDS011;35061;47.664;9.166;2023-02-28T00:41:07;6.97;;;5.00;;
18754;SDS011;35061;47.664;9.166;2023-02-28T00:43:36;6.43;;;5.25;;
18754;SDS011;35061;47.664;9.166;2023-02-28T00:46:05;6.10;;;5.53;;
18754;SDS011;35061;47.664;9.166;2023-02-28T00:48:34;4.87;;;4.47;;
18754;SDS011;35061;47.664;9.166;2023-02-28T00:51:02;4.90;;;4.00;;
18754;SDS011;35061;47.664;9.166;2023-02-28T00:53:30;6.72;;;4.50;;
18754;SDS011;35061;47.664;9.166;2023-02-28T00:55:59;5.10;;;4.60;;
18754;SDS011;35061;47.664;9.166;2023-02-28T00:58:28;4.95;;;3.60;;
18754;SDS011;35061;47.664;9.166;2023-02-28T01:00:55;4.82;;;3.55;;
18754;SDS011;35061;47.664;9.166;2023-02-28T01:03:23;4.95;;;4.47;;
18754;SDS011;35061;47.664;9.166;2023-02-28T01:05:51;5.05;;;4.55;;
18754;SDS011;35061;47.664;9.166;2023-02-28T01:08:20;4.93;;;4.50;;
18754;SDS011;35061;47.664;9.166;2023-02-28T01:10:48;5.80;;;4.90;;
18754;SDS011;35061;47.664;9.166;2023-02-28T01:13:16;4.50;;;4.10;;
18754;SDS011;35061;47.664;9.166;2023-02-28T01:15:54;6.00;;;4.12;;
18754;SDS011;35061;47.664;9.166;2023-02-28T01:18:23;5.47;;;4.10;;
18754;SDS011;35061;47.664;9.166;2023-02-28T01:20:52;5.10;;;4.25;;
18754;SDS011;35061;47.664;9.166;2023-02-28T01:23:20;5.47;;;3.97;;
18754;SDS011;35061;47.664;9.166;2023-02-28T01:25:51;4.62;;;4.22;;
18754;SDS011;35061;47.664;9.166;2023-02-28T01:28:19;4.95;;;4.45;;
18754;SDS011;35061;47.664;9.166;2023-02-28T01:30:47;5.37;;;4.68;;
18754;SDS011;35061;47.664;9.166;2023-02-28T01:33:16;4.50;;;4.10;;
18754;SDS011;35061;47.664;9.166;2023-02-28T01:35:44;3.72;;;3.42;;
18754;SDS011;35061;47.664;9.166;2023-02-28T01:38:12;8.95;;;4.75;;
18754;SDS011;35061;47.664;9.166;2023-02-28T01:40:48;5.30;;;4.37;;
18754;SDS011;35061;47.664;9.166;2023-02-28T01:43:20;5.18;;;4.35;;
18754;SDS011;35061;47.664;9.166;2023-02-28T01:45:50;4.43;;;3.95;;
18754;SDS011;35061;47.664;9.166;2023-02-28T01:48:21;5.10;;;3.72;;
18754;SDS011;35061;47.664;9.166;2023-02-28T01:50:55;5.68;;;3.75;;
18754;SDS011;35061;47.664;9.166;2023-02-28T01:53:29;4.53;;;4.10;;
18754;SDS011;35061;47.664;9.166;2023-02-28T01:56:02;5.85;;;4.10;;
18754;SDS011;35061;47.664;9.166;2023-02-28T01:58:32;4.70;;;3.80;;
18754;SDS011;35061;47.664;9.166;2023-02-28T02:01:00;4.90;;;3.70;;
18754;SDS011;35061;47.664;9.166;2023-02-28T02:03:30;5.80;;;4.87;;
18754;SDS011;35061;47.664;9.166;2023-02-28T02:05:58;4.65;;;4.10;;
18754;SDS011;35061;47.664;9.166;2023-02-28T02:08:26;5.75;;;4.10;;
18754;SDS011;35061;47.664;9.166;2023-02-28T02:11:00;4.93;;;4.53;;
18754;SDS011;35061;47.664;9.166;2023-02-28T02:24:49;3.85;;;3.55;;
18754;SDS011;35061;47.664;9.166;2023-02-28T02:39:06;5.93;;;4.37;;
18754;SDS011;35061;47.664;9.166;2023-02-28T02:41:53;3.87;;;3.22;;
18754;SDS011;35061;47.664;9.166;2023-02-28T02:44:43;4.60;;;4.20;;
18754;SDS011;35061;47.664;9.166;2023-02-28T02:47:16;4.28;;;3.85;;
18754;SDS011;35061;47.664;9.166;2023-02-28T02:49:48;4.60;;;4.00;;
18754;SDS011;35061;47.664;9.166;2023-02-28T02:52:20;4.20;;;3.80;;
18754;SDS011;35061;47.664;9.166;2023-02-28T02:54:52;4.00;;;3.53;;
18754;SDS011;35061;47.664;9.166;2023-02-28T02:57:35;3.40;;;3.10;;
18754;SDS011;35061;47.664;9.166;2023-02-28T03:00:08;3.97;;;3.62;;
18754;SDS011;35061;47.664;9.166;2023-02-28T03:02:36;5.90;;;4.35;;
18754;SDS011;35061;47.664;9.166;2023-02-28T03:05:08;5.00;;;4.32;;
18754;SDS011;35061;47.664;9.166;2023-02-28T03:07:44;7.05;;;3.95;;
18754;SDS011;35061;47.664;9.166;2023-02-28T03:10:25;4.47;;;3.55;;
18754;SDS011;35061;47.664;9.166;2023-02-28T03:19:00;4.03;;;3.67;;
18754;SDS011;35061;47.664;9.166;2023-02-28T03:24:31;4.78;;;3.62;;
18754;SDS011;35061;47.664;9.166;2023-02-28T03:33:02;4.47;;;3.30;;
18754;SDS011;35061;47.664;9.166;2023-02-28T03:35:42;4.22;;;3.70;;
18754;SDS011;35061;47.664;9.166;2023-02-28T03:38:19;3.80;;;3.50;;
18754;SDS011;35061;47.664;9.166;2023-02-28T03:40:50;3.50;;;3.20;;
18754;SDS011;35061;47.664;9.166;2023-02-28T03:43:28;4.57;;;3.15;;
18754;SDS011;35061;47.664;9.166;2023-02-28T03:45:59;3.75;;;3.35;;
18754;SDS011;35061;47.664;9.166;2023-02-28T03:48:41;5.68;;;3.12;;
18754;SDS011;35061;47.664;9.166;2023-02-28T03:51:18;4.47;;;3.67;;
18754;SDS011;35061;47.664;9.166;2023-02-28T03:53:54;4.03;;;3.65;;
18754;SDS011;35061;47.664;9.166;2023-02-28T03:56:33;5.25;;;3.65;;
18754;SDS011;35061;47.664;9.166;2023-02-28T03:59:15;4.22;;;3.80;;
18754;SDS011;35061;47.664;9.166;2023-02-28T04:01:50;4.30;;;3.45;;
18754;SDS011;35061;47.664;9.166;2023-02-28T04:04:18;3.87;;;3.50;;
18754;SDS011;35061;47.664;9.166;2023-02-28T04:06:49;4.37;;;3.97;;
18754;SDS011;35061;47.664;9.166;2023-02-28T04:09:18;4.18;;;3.78;;
18754;SDS011;35061;47.664;9.166;2023-02-28T04:11:50;5.72;;;4.05;;
18754;SDS011;35061;47.664;9.166;2023-02-28T04:14:19;4.75;;;4.30;;
18754;SDS011;35061;47.664;9.166;2023-02-28T04:16:46;4.47;;;3.90;;
18754;SDS011;35061;47.664;9.166;2023-02-28T04:19:14;4.22;;;3.78;;
18754;SDS011;35061;47.664;9.166;2023-02-28T04:21:43;6.35;;;3.78;;
18754;SDS011;35061;47.664;9.166;2023-02-28T04:24:13;4.00;;;3.60;;
18754;SDS011;35061;47.664;9.166;2023-02-28T04:26:44;5.20;;;4.62;;
18754;SDS011;35061;47.664;9.166;2023-02-28T04:29:18;4.70;;;3.83;;
18754;SDS011;35061;47.664;9.166;2023-02-28T04:31:47;5.10;;;4.25;;
18754;SDS011;35061;47.664;9.166;2023-02-28T04:34:16;5.60;;;4.05;;
18754;SDS011;35061;47.664;9.166;2023-02-28T04:36:43;6.53;;;3.95;;
18754;SDS011;35061;47.664;9.166;2023-02-28T04:39:17;5.37;;;3.92;;
18754;SDS011;35061;47.664;9.166;2023-02-28T04:41:45;4.62;;;3.65;;
18754;SDS011;35061;47.664;9.166;2023-02-28T04:44:14;6.55;;;4.40;;
18754;SDS011;35061;47.664;9.166;2023-02-28T04:46:42;4.30;;;3.90;;
18754;SDS011;35061;47.664;9.166;2023-02-28T04:49:11;5.12;;;3.97;;
18754;SDS011;35061;47.664;9.166;2023-02-28T04:51:39;6.18;;;4.30;;
18754;SDS011;35061;47.664;9.166;2023-02-28T04:54:07;5.03;;;4.53;;
18754;SDS011;35061;47.664;9.166;2023-02-28T04:56:35;4.97;;;4.47;;
18754;SDS011;35061;47.664;9.166;2023-02-28T04:59:03;4.72;;;4.30;;
18754;SDS011;35061;47.664;9.166;2023-02-28T05:01:32;4.32;;;3.92;;
18754;SDS011;35061;47.664;9.166;2023-02-28T05:04:01;4.75;;;4.22;;
18754;SDS011;35061;47.664;9.166;2023-02-28T05:06:31;5.55;;;4.93;;
18754;SDS011;35061;47.664;9.166;2023-02-28T05:08:59;4.68;;;4.28;;
18754;SDS011;35061;47.664;9.166;2023-02-28T05:11:29;5.15;;;3.95;;
18754;SDS011;35061;47.664;9.166;2023-02-28T05:14:09;4.65;;;4.25;;
18754;SDS011;35061;47.664;9.166;2023-02-28T05:16:38;5.18;;;4.43;;
18754;SDS011;35061;47.664;9.166;2023-02-28T05:19:06;5.15;;;4.03;;
18754;SDS011;35061;47.664;9.166;2023-02-28T05:21:36;4.40;;;3.80;;
18754;SDS011;35061;47.664;9.166;2023-02-28T05:24:09;4.65;;;4.25;;
18754;SDS011;35061;47.664;9.166;2023-02-28T05:26:42;4.78;;;4.28;;
18754;SDS011;35061;47.664;9.166;2023-02-28T05:29:10;6.50;;;4.85;;
18754;SDS011;35061;47.664;9.166;2023-02-28T05:31:38;5.10;;;4.65;;
18754;SDS011;35061;47.664;9.166;2023-02-28T05:34:06;5.10;;;4.50;;
18754;SDS011;35061;47.664;9.166;2023-02-28T05:36:34;5.30;;;4.15;;
18754;SDS011;35061;47.664;9.166;2023-02-28T05:39:07;5.03;;;4.47;;
18754;SDS011;35061;47.664;9.166;2023-02-28T05:41:42;6.57;;;4.95;;
18754;SDS011;35061;47.664;9.166;2023-02-28T05:44:10;4.47;;;4.07;;
18754;SDS011;35061;47.664;9.166;2023-02-28T05:46:39;6.62;;;4.87;;
18754;SDS011;35061;47.664;9.166;2023-02-28T05:49:07;5.47;;;4.75;;
18754;SDS011;35061;47.664;9.166;2023-02-28T05:51:35;4.80;;;4.40;;
18754;SDS011;35061;47.664;9.166;2023-02-28T05:54:03;6.53;;;5.05;;
18754;SDS011;35061;47.664;9.166;2023-02-28T05:56:31;5.87;;;4.62;;
18754;SDS011;35061;47.664;9.166;2023-02-28T05:59:01;5.15;;;4.35;;
18754;SDS011;35061;47.664;9.166;2023-02-28T06:01:42;5.78;;;4.85;;
18754;SDS011;35061;47.664;9.166;2023-02-28T06:04:16;6.12;;;5.00;;
18754;SDS011;35061;47.664;9.166;2023-02-28T06:06:57;4.97;;;4.25;;
18754;SDS011;35061;47.664;9.166;2023-02-28T06:09:25;6.97;;;4.97;;
18754;SDS011;35061;47.664;9.166;2023-02-28T06:11:53;7.60;;;4.57;;
18754;SDS011;35061;47.664;9.166;2023-02-28T06:14:21;6.90;;;5.00;;
18754;SDS011;35061;47.664;9.166;2023-02-28T06:16:49;7.07;;;5.10;;
18754;SDS011;35061;47.664;9.166;2023-02-28T06:19:16;7.55;;;5.93;;
18754;SDS011;35061;47.664;9.166;2023-02-28T06:21:44;6.60;;;4.97;;
18754;SDS011;35061;47.664;9.166;2023-02-28T06:24:15;6.00;;;4.87;;
18754;SDS011;35061;47.664;9.166;2023-02-28T06:26:43;5.75;;;4.65;;
18754;SDS011;35061;47.664;9.166;2023-02-28T06:29:11;6.03;;;5.40;;
18754;SDS011;35061;47.664;9.166;2023-02-28T06:31:39;5.40;;;4.87;;
18754;SDS011;35061;47.664;9.166;2023-02-28T06:34:07;6.10;;;5.07;;
18754;SDS011;35061;47.664;9.166;2023-02-28T06:36:34;6.00;;;4.35;;
18754;SDS011;35061;47.664;9.166;2023-02-28T06:39:03;5.82;;;4.78;;
18754;SDS011;35061;47.664;9.166;2023-02-28T06:41:31;5.93;;;4.68;;
18754;SDS011;35061;47.664;9.166;2023-02-28T06:44:18;6.00;;;4.80;;
18754;SDS011;35061;47.664;9.166;2023-02-28T06:46:46;6.87;;;5.10;;
18754;SDS011;35061;47.664;9.166;2023-02-28T06:49:14;5.65;;;5.07;;
18754;SDS011;35061;47.664;9.166;2023-02-28T06:51:43;5.35;;;4.60;;
18754;SDS011;35061;47.664;9.166;2023-02-28T06:54:14;6.62;;;5.95;;
18754;SDS011;35061;47.664;9.166;2023-02-28T06:56:42;4.95;;;4.43;;
18754;SDS011;35061;47.664;9.166;2023-02-28T06:59:10;6.05;;;4.95;;
18754;SDS011;35061;47.664;9.166;2023-02-28T07:01:38;6.85;;;5.68;;
18754;SDS011;35061;47.664;9.166;2023-02-28T07:04:07;7.25;;;5.32;;
18754;SDS011;35061;47.664;9.166;2023-02-28T07:06:35;5.00;;;4.50;;
18754;SDS011;35061;47.664;9.166;2023-02-28T07:09:03;5.07;;;4.53;;
18754;SDS011;35061;47.664;9.166;2023-02-28T07:11:31;5.80;;;5.20;;
18754;SDS011;35061;47.664;9.166;2023-02-28T07:13:59;6.07;;;4.53;;
18754;SDS011;35061;47.664;9.166;2023-02-28T07:16:27;5.97;;;5.07;;
18754;SDS011;35061;47.664;9.166;2023-02-28T07:18:54;6.32;;;5.28;;
18754;SDS011;35061;47.664;9.166;2023-02-28T07:21:22;6.78;;;4.62;;
18754;SDS011;35061;47.664;9.166;2023-02-28T07:23:50;6.25;;;5.60;;
18754;SDS011;35061;47.664;9.166;2023-02-28T07:26:19;7.53;;;5.15;;
18754;SDS011;35061;47.664;9.166;2023-02-28T07:28:47;6.12;;;4.90;;
18754;SDS011;35061;47.664;9.166;2023-02-28T07:31:16;6.30;;;5.20;;
18754;SDS011;35061;47.664;9.166;2023-02-28T07:33:44;6.82;;;6.05;;
18754;SDS011;35061;47.664;9.166;2023-02-28T07:36:13;10.10;;;5.82;;
18754;SDS011;35061;47.664;9.166;2023-02-28T07:38:44;5.57;;;5.07;;
18754;SDS011;35061;47.664;9.166;2023-02-28T07:41:18;7.70;;;6.40;;
18754;SDS011;35061;47.664;9.166;2023-02-28T07:43:47;7.68;;;6.20;;
18754;SDS011;35061;47.664;9.166;2023-02-28T07:46:16;8.45;;;5.75;;
18754;SDS011;35061;47.664;9.166;2023-02-28T07:48:44;8.48;;;5.68;;
18754;SDS011;35061;47.664;9.166;2023-02-28T07:51:12;6.72;;;5.78;;
18754;SDS011;35061;47.664;9.166;2023-02-28T07:53:40;5.93;;;5.15;;
18754;SDS011;35061;47.664;9.166;2023-02-28T07:56:08;6.25;;;5.65;;
18754;SDS011;35061;47.664;9.166;2023-02-28T07:58:36;7.68;;;5.22;;
18754;SDS011;35061;47.664;9.166;2023-02-28T08:01:07;7.00;;;5.80;;
18754;SDS011;35061;47.664;9.166;2023-02-28T08:03:37;7.37;;;5.68;;
18754;SDS011;35061;47.664;9.166;2023-02-28T08:06:06;8.32;;;5.72;;
18754;SDS011;35061;47.664;9.166;2023-02-28T08:08:35;7.10;;;5.57;;
18754;SDS011;35061;47.664;9.166;2023-02-28T08:11:03;7.70;;;6.45;;
18754;SDS011;35061;47.664;9.166;2023-02-28T08:13:31;6.37;;;5.15;;
18754;SDS011;35061;47.664;9.166;2023-02-28T08:16:00;6.37;;;5.50;;
18754;SDS011;35061;47.664;9.166;2023-02-28T08:18:29;7.78;;;5.82;;
18754;SDS011;35061;47.664;9.166;2023-02-28T08:20:56;7.60;;;5.97;;
18754;SDS011;35061;47.664;9.166;2023-02-28T08:23:24;6.78;;;5.25;;
18754;SDS011;35061;47.664;9.166;2023-02-28T08:25:53;5.55;;;4.87;;
18754;SDS011;35061;47.664;9.166;2023-02-28T08:28:22;6.22;;;4.57;;
18754;SDS011;35061;47.664;9.166;2023-02-28T08:30:52;6.82;;;5.37;;
18754;SDS011;35061;47.664;9.166;2023-02-28T08:33:21;6.28;;;5.50;;
18754;SDS011;35061;47.664;9.166;2023-02-28T08:35:56;6.53;;;5.72;;
18754;SDS011;35061;47.664;9.166;2023-02-28T08:38:24;8.70;;;6.28;;
18754;SDS011;35061;47.664;9.166;2023-02-28T08:40:58;7.22;;;5.80;;
18754;SDS011;35061;47.664;9.166;2023-02-28T08:43:27;9.07;;;5.75;;
18754;SDS011;35061;47.664;9.166;2023-02-28T08:45:56;7.55;;;5.37;;
18754;SDS011;35061;47.664;9.166;2023-02-28T08:48:27;6.75;;;4.97;;
18754;SDS011;35061;47.664;9.166;2023-02-28T08:51:00;7.55;;;6.00;;
18754;SDS011;35061;47.664;9.166;2023-02-28T08:53:33;6.37;;;5.62;;
18754;SDS011;35061;47.664;9.166;2023-02-28T08:56:09;7.43;;;5.97;;
18754;SDS011;35061;47.664;9.166;2023-02-28T08:58:38;6.72;;;5.45;;
18754;SDS011;35061;47.664;9.166;2023-02-28T09:01:08;10.00;;;6.55;;
18754;SDS011;35061;47.664;9.166;2023-02-28T09:04:10;6.37;;;5.60;;
18754;SDS011;35061;47.664;9.166;2023-02-28T09:06:45;6.80;;;5.32;;
18754;SDS011;35061;47.664;9.166;2023-02-28T09:09:12;6.68;;;5.80;;
18754;SDS011;35061;47.664;9.166;2023-02-28T09:11:40;6.90;;;6.18;;
18754;SDS011;35061;47.664;9.166;2023-02-28T09:14:08;10.10;;;6.60;;
18754;SDS011;35061;47.664;9.166;2023-02-28T09:16:36;8.35;;;6.43;;
18754;SDS011;35061;47.664;9.166;2023-02-28T09:19:04;6.80;;;5.60;;
18754;SDS011;35061;47.664;9.166;2023-02-28T09:21:31;6.60;;;5.90;;
18754;SDS011;35061;47.664;9.166;2023-02-28T09:23:59;7.35;;;6.03;;
18754;SDS011;35061;47.664;9.166;2023-02-28T09:26:27;7.07;;;5.78;;
18754;SDS011;35061;47.664;9.166;2023-02-28T09:29:08;6.45;;;5.30;;
18754;SDS011;35061;47.664;9.166;2023-02-28T09:31:36;6.70;;;5.53;;
18754;SDS011;35061;47.664;9.166;2023-02-28T09:34:04;7.37;;;5.53;;
18754;SDS011;35061;47.664;9.166;2023-02-28T09:36:32;7.15;;;6.45;;
18754;SDS011;35061;47.664;9.166;2023-02-28T09:39:11;7.20;;;5.35;;
18754;SDS011;35061;47.664;9.166;2023-02-28T09:41:41;8.15;;;5.57;;
18754;SDS011;35061;47.664;9.166;2023-02-28T09:47:04;7.65;;;6.78;;
18754;SDS011;35061;47.664;9.166;2023-02-28T09:49:53;7.55;;;5.70;;
18754;SDS011;35061;47.664;9.166;2023-02-28T09:52:24;6.93;;;5.65;;
18754;SDS011;35061;47.664;9.166;2023-02-28T09:55:00;8.32;;;6.03;;
18754;SDS011;35061;47.664;9.166;2023-02-28T09:57:45;6.55;;;5.70;;
18754;SDS011;35061;47.664;9.166;2023-02-28T10:03:15;8.65;;;6.07;;
18754;SDS011;35061;47.664;9.166;2023-02-28T10:11:28;6.85;;;5.53;;
18754;SDS011;35061;47.664;9.166;2023-02-28T10:14:01;8.02;;;7.10;;
18754;SDS011;35061;47.664;9.166;2023-02-28T10:16:36;8.68;;;5.72;;
18754;SDS011;35061;47.664;9.166;2023-02-28T10:24:28;8.63;;;7.72;;
18754;SDS011;35061;47.664;9.166;2023-02-28T10:27:01;11.05;;;7.15;;
18754;SDS011;35061;47.664;9.166;2023-02-28T10:29:42;6.12;;;5.53;;
18754;SDS011;35061;47.664;9.166;2023-02-28T10:32:19;8.25;;;6.18;;
18754;SDS011;35061;47.664;9.166;2023-02-28T10:34:59;8.23;;;6.55;;
18754;SDS011;35061;47.664;9.166;2023-02-28T10:37:37;8.98;;;6.50;;
18754;SDS011;35061;47.664;9.166;2023-02-28T10:40:06;7.82;;;6.15;;
18754;SDS011;35061;47.664;9.166;2023-02-28T10:43:04;9.20;;;6.53;;
18754;SDS011;35061;47.664;9.166;2023-02-28T10:48:34;10.45;;;7.35;;
18754;SDS011;35061;47.664;9.166;2023-02-28T10:51:09;9.38;;;6.55;;
18754;SDS011;35061;47.664;9.166;2023-02-28T10:56:26;7.00;;;5.57;;
18754;SDS011;35061;47.664;9.166;2023-02-28T10:59:00;7.15;;;6.12;;
18754;SDS011;35061;47.664;9.166;2023-02-28T11:04:00;7.45;;;5.75;;
18754;SDS011;35061;47.664;9.166;2023-02-28T11:06:32;7.60;;;6.80;;
18754;SDS011;35061;47.664;9.166;2023-02-28T11:09:03;8.73;;;7.12;;
18754;SDS011;35061;47.664;9.166;2023-02-28T11:11:43;9.20;;;6.43;;
18754;SDS011;35061;47.664;9.166;2023-02-28T11:14:58;8.52;;;6.93;;
18754;SDS011;35061;47.664;9.166;2023-02-28T11:17:19;7.50;;;5.75;;
18754;SDS011;35061;47.664;9.166;2023-02-28T11:19:53;7.37;;;6.30;;
18754;SDS011;35061;47.664;9.166;2023-02-28T11:22:29;8.25;;;6.15;;
18754;SDS011;35061;47.664;9.166;2023-02-28T11:25:07;7.85;;;6.53;;
18754;SDS011;35061;47.664;9.166;2023-02-28T11:27:48;7.93;;;6.62;;
18754;SDS011;35061;47.664;9.166;2023-02-28T11:30:24;7.25;;;5.95;;
18754;SDS011;35061;47.664;9.166;2023-02-28T11:33:22;8.38;;;6.20;;
18754;SDS011;35061;47.664;9.166;2023-02-28T11:36:03;7.65;;;5.93;;
18754;SDS011;35061;47.664;9.166;2023-02-28T11:38:37;8.07;;;6.53;;
18754;SDS011;35061;47.664;9.166;2023-02-28T11:46:51;9.25;;;7.65;;
18754;SDS011;35061;47.664;9.166;2023-02-28T11:58:25;9.68;;;7.12;;
18754;SDS011;35061;47.664;9.166;2023-02-28T12:01:09;7.65;;;6.62;;
18754;SDS011;35061;47.664;9.166;2023-02-28T12:17:34;10.50;;;7.95;;
18754;SDS011;35061;47.664;9.166;2023-02-28T12:23:22;9.18;;;6.82;;
18754;SDS011;35061;47.664;9.166;2023-02-28T12:28:53;8.80;;;7.50;;
18754;SDS011;35061;47.664;9.166;2023-02-28T12:31:28;9.40;;;7.10;;
18754;SDS011;35061;47.664;9.166;2023-02-28T12:34:03;10.70;;;8.57;;
18754;SDS011;35061;47.664;9.166;2023-02-28T12:36:34;10.38;;;7.65;;
18754;SDS011;35061;47.664;9.166;2023-02-28T12:39:05;9.50;;;6.93;;
18754;SDS011;35061;47.664;9.166;2023-02-28T12:41:41;10.77;;;7.75;;
18754;SDS011;35061;47.664;9.166;2023-02-28T12:46:59;8.93;;;7.90;;
18754;SDS011;35061;47.664;9.166;2023-02-28T12:49:42;9.25;;;7.35;;
18754;SDS011;35061;47.664;9.166;2023-02-28T12:52:23;8.88;;;7.97;;
18754;SDS011;35061;47.664;9.166;2023-02-28T12:58:05;11.40;;;8.77;;
18754;SDS011;35061;47.664;9.166;2023-02-28T13:09:32;10.90;;;8.25;;
18754;SDS011;35061;47.664;9.166;2023-02-28T13:12:00;9.68;;;8.65;;
18754;SDS011;35061;47.664;9.166;2023-02-28T13:14:37;10.57;;;8.02;;
18754;SDS011;35061;47.664;9.166;2023-02-28T13:19:37;11.73;;;9.43;;
18754;SDS011;35061;47.664;9.166;2023-02-28T13:22:16;11.18;;;8.25;;
18754;SDS011;35061;47.664;9.166;2023-02-28T13:24:56;14.45;;;9.20;;
18754;SDS011;35061;47.664;9.166;2023-02-28T13:27:32;13.60;;;8.93;;
18754;SDS011;35061;47.664;9.166;2023-02-28T13:30:50;10.57;;;9.18;;
18754;SDS011;35061;47.664;9.166;2023-02-28T13:38:59;10.70;;;9.02;;
18754;SDS011;35061;47.664;9.166;2023-02-28T13:46:29;10.73;;;9.10;;
18754;SDS011;35061;47.664;9.166;2023-02-28T13:51:55;12.15;;;8.65;;
18754;SDS011;35061;47.664;9.166;2023-02-28T14:03:05;14.80;;;11.32;;
18754;SDS011;35061;47.664;9.166;2023-02-28T14:05:42;14.45;;;10.35;;
18754;SDS011;35061;47.664;9.166;2023-02-28T14:08:16;11.48;;;9.00;;
18754;SDS011;35061;47.664;9.166;2023-02-28T14:10:49;13.88;;;9.63;;
18754;SDS011;35061;47.664;9.166;2023-02-28T14:16:06;11.12;;;8.30;;
18754;SDS011;35061;47.664;9.166;2023-02-28T14:18:36;11.10;;;9.45;;
18754;SDS011;35061;47.664;9.166;2023-02-28T14:27:36;11.35;;;9.65;;
18754;SDS011;35061;47.664;9.166;2023-02-28T14:32:47;11.65;;;9.40;;
18754;SDS011;35061;47.664;9.166;2023-02-28T14:38:11;15.18;;;10.75;;
18754;SDS011;35061;47.664;9.166;2023-02-28T14:40:44;12.32;;;9.20;;
18754;SDS011;35061;47.664;9.166;2023-02-28T14:43:22;12.25;;;10.00;;
18754;SDS011;35061;47.664;9.166;2023-02-28T15:02:36;12.63;;;9.00;;
18754;SDS011;35061;47.664;9.166;2023-02-28T15:07:45;12.80;;;9.10;;
18754;SDS011;35061;47.664;9.166;2023-02-28T15:10:18;14.77;;;10.60;;
18754;SDS011;35061;47.664;9.166;2023-02-28T15:13:05;15.45;;;10.77;;
18754;SDS011;35061;47.664;9.166;2023-02-28T15:15:45;15.63;;;10.60;;
18754;SDS011;35061;47.664;9.166;2023-02-28T15:21:18;15.35;;;11.30;;
18754;SDS011;35061;47.664;9.166;2023-02-28T15:26:59;12.50;;;10.10;;
18754;SDS011;35061;47.664;9.166;2023-02-28T15:29:33;13.20;;;9.32;;
18754;SDS011;35061;47.664;9.166;2023-02-28T15:32:19;14.20;;;11.38;;
18754;SDS011;35061;47.664;9.166;2023-02-28T15:34:48;12.57;;;10.27;;
18754;SDS011;35061;47.664;9.166;2023-02-28T15:40:13;11.85;;;8.55;;
18754;SDS011;35061;47.664;9.166;2023-02-28T15:42:42;13.40;;;9.98;;
18754;SDS011;35061;47.664;9.166;2023-02-28T15:50:58;14.95;;;10.18;;
18754;SDS011;35061;47.664;9.166;2023-02-28T15:53:33;12.35;;;9.18;;
18754;SDS011;35061;47.664;9.166;2023-02-28T15:56:25;13.13;;;9.85;;
18754;SDS011;35061;47.664;9.166;2023-02-28T15:58:56;13.02;;;10.35;;
18754;SDS011;35061;47.664;9.166;2023-02-28T16:01:27;12.98;;;10.10;;
18754;SDS011;35061;47.664;9.166;2023-02-28T16:04:04;14.10;;;10.63;;
18754;SDS011;35061;47.664;9.166;2023-02-28T16:09:15;15.68;;;11.07;;
18754;SDS011;35061;47.664;9.166;2023-02-28T16:11:48;13.30;;;10.38;;
18754;SDS011;35061;47.664;9.166;2023-02-28T16:14:22;14.02;;;10.20;;
18754;SDS011;35061;47.664;9.166;2023-02-28T16:16:53;14.70;;;10.23;;
18754;SDS011;35061;47.664;9.166;2023-02-28T16:19:23;11.48;;;9.07;;
18754;SDS011;35061;47.664;9.166;2023-02-28T16:21:51;13.62;;;10.00;;
18754;SDS011;35061;47.664;9.166;2023-02-28T16:24:18;13.75;;;9.93;;
18754;SDS011;35061;47.664;9.166;2023-02-28T16:26:47;13.52;;;10.18;;
18754;SDS011;35061;47.664;9.166;2023-02-28T16:29:25;9.65;;;8.40;;
18754;SDS011;35061;47.664;9.166;2023-02-28T16:31:58;12.40;;;9.82;;
18754;SDS011;35061;47.664;9.166;2023-02-28T16:34:27;12.35;;;10.32;;
18754;SDS011;35061;47.664;9.166;2023-02-28T16:36:54;11.88;;;9.98;;
18754;SDS011;35061;47.664;9.166;2023-02-28T16:39:22;11.57;;;9.65;;
18754;SDS011;35061;47.664;9.166;2023-02-28T16:41:50;14.27;;;10.20;;
18754;SDS011;35061;47.664;9.166;2023-02-28T16:46:56;12.25;;;8.95;;
18754;SDS011;35061;47.664;9.166;2023-02-28T16:49:24;13.88;;;10.20;;
18754;SDS011;35061;47.664;9.166;2023-02-28T16:51:52;14.35;;;10.63;;
18754;SDS011;35061;47.664;9.166;2023-02-28T16:54:20;12.57;;;10.23;;
18754;SDS011;35061;47.664;9.166;2023-02-28T16:56:48;12.75;;;9.82;;
18754;SDS011;35061;47.664;9.166;2023-02-28T16:59:21;14.18;;;10.68;;
18754;SDS011;35061;47.664;9.166;2023-02-28T17:01:51;17.65;;;11.48;;
18754;SDS011;35061;47.664;9.166;2023-02-28T17:04:19;15.35;;;10.73;;
18754;SDS011;35061;47.664;9.166;2023-02-28T17:06:47;17.75;;;10.10;;
18754;SDS011;35061;47.664;9.166;2023-02-28T17:09:19;12.95;;;10.27;;
18754;SDS011;35061;47.664;9.166;2023-02-28T17:11:56;13.20;;;9.85;;
18754;SDS011;35061;47.664;9.166;2023-02-28T17:14:24;13.15;;;9.75;;
18754;SDS011;35061;47.664;9.166;2023-02-28T17:16:51;13.38;;;10.57;;
18754;SDS011;35061;47.664;9.166;2023-02-28T17:19:19;15.70;;;10.10;;
18754;SDS011;35061;47.664;9.166;2023-02-28T17:21:47;14.68;;;9.98;;
18754;SDS011;35061;47.664;9.166;2023-02-28T17:24:15;12.48;;;10.20;;
18754;SDS011;35061;47.664;9.166;2023-02-28T17:26:55;15.73;;;11.52;;
18754;SDS011;35061;47.664;9.166;2023-02-28T17:29:23;15.15;;;11.02;;
18754;SDS011;35061;47.664;9.166;2023-02-28T17:31:51;15.10;;;10.80;;
18754;SDS011;35061;47.664;9.166;2023-02-28T17:34:22;14.52;;;10.05;;
18754;SDS011;35061;47.664;9.166;2023-02-28T17:36:50;14.93;;;10.75;;
18754;SDS011;35061;47.664;9.166;2023-02-28T17:39:19;14.52;;;10.23;;
18754;SDS011;35061;47.664;9.166;2023-02-28T17:41:51;14.43;;;9.40;;
18754;SDS011;35061;47.664;9.166;2023-02-28T17:44:21;11.90;;;9.80;;
18754;SDS011;35061;47.664;9.166;2023-02-28T17:46:49;16.73;;;11.50;;
18754;SDS011;35061;47.664;9.166;2023-02-28T17:49:18;13.32;;;9.18;;
18754;SDS011;35061;47.664;9.166;2023-02-28T17:51:46;13.32;;;10.13;;
18754;SDS011;35061;47.664;9.166;2023-02-28T17:54:15;13.62;;;9.68;;
18754;SDS011;35061;47.664;9.166;2023-02-28T17:56:44;14.07;;;10.02;;
18754;SDS011;35061;47.664;9.166;2023-02-28T17:59:12;13.45;;;10.05;;
18754;SDS011;35061;47.664;9.166;2023-02-28T18:01:40;14.20;;;9.70;;
18754;SDS011;35061;47.664;9.166;2023-02-28T18:04:08;14.95;;;10.48;;
18754;SDS011;35061;47.664;9.166;2023-02-28T18:06:40;12.75;;;10.30;;
18754;SDS011;35061;47.664;9.166;2023-02-28T18:09:14;12.05;;;10.35;;
18754;SDS011;35061;47.664;9.166;2023-02-28T18:11:43;13.77;;;10.52;;
18754;SDS011;35061;47.664;9.166;2023-02-28T18:14:18;13.48;;;9.95;;
18754;SDS011;35061;47.664;9.166;2023-02-28T18:16:48;12.45;;;9.45;;
18754;SDS011;35061;47.664;9.166;2023-02-28T18:19:15;13.93;;;10.27;;
18754;SDS011;35061;47.664;9.166;2023-02-28T18:21:44;16.27;;;10.52;;